Time;durP1;ratioP1;P1;durP2;ratioP2;P2;SDS_P1;SDS_P2;PMS_P1;PMS_P2;Temp;Humidity;BMP_temperature;BMP_pressure;BME280_temperature;BME280_humidity;BME280_pressure;Samples;Min_cycle;Max_cycle;Signal;HPM_P1;HPM_P2
2022/05/04 00:00:50;;;;;;;7.13;2.60;;;8.20;99.90;;;;;;5115517;28;20075;-76
2022/05/04 00:03:15;;;;;;;6.25;2.15;;;8.20;99.90;;;;;;5114946;28;20073;-74
2022/05/04 00:05:41;;;;;;;7.95;2.50;;;8.20;99.90;;;;;;5114841;28;20039;-75
2022/05/04 00:08:07;;;;;;;13.57;2.72;;;8.20;99.90;;;;;;5114881;28;20054;-74
2022/05/04 00:10:34;;;;;;;8.97;2.73;;;8.20;99.90;;;;;;5114787;28;20079;-75
2022/05/04 00:13:00;;;;;;;;;;;8.30;99.90;;;;;;5115001;28;20334;-75
2022/05/04 00:15:26;;;;;;;10.65;2.40;;;8.30;99.90;;;;;;5113770;28;19934;-74
2022/05/04 00:17:52;;;;;;;9.68;2.40;;;8.30;99.90;;;;;;5114811;28;20449;-74
2022/05/04 00:20:18;;;;;;;7.60;2.60;;;8.30;99.90;;;;;;5114460;28;20522;-74
2022/05/04 00:22:44;;;;;;;8.15;2.47;;;8.30;99.90;;;;;;5114531;28;20082;-75
2022/05/04 00:25:10;;;;;;;8.88;2.55;;;8.30;99.90;;;;;;5114538;28;20047;-74
2022/05/04 00:27:37;;;;;;;11.20;2.20;;;8.30;99.90;;;;;;5114486;28;20035;-75
2022/05/04 00:30:05;;;;;;;8.82;2.22;;;8.30;99.90;;;;;;5114065;28;20372;-74
2022/05/04 00:32:31;;;;;;;7.53;2.35;;;8.30;99.90;;;;;;5114377;28;20055;-74
2022/05/04 00:34:57;;;;;;;9.07;2.42;;;8.30;99.90;;;;;;5114369;28;20048;-75
2022/05/04 00:37:22;;;;;;;5.60;2.33;;;8.30;99.90;;;;;;5114287;28;20495;-75
2022/05/04 00:39:48;;;;;;;10.32;2.38;;;8.30;99.90;;;;;;5114305;28;20278;-75
2022/05/04 00:42:19;;;;;;;11.50;2.53;;;8.30;99.90;;;;;;5114300;28;20126;-74
2022/05/04 00:44:47;;;;;;;11.95;2.53;;;8.30;99.90;;;;;;5114345;28;20051;-75
2022/05/04 00:47:13;;;;;;;10.90;2.70;;;8.20;99.90;;;;;;5114162;28;20079;-74
2022/05/04 00:49:40;;;;;;;12.43;2.55;;;8.30;99.90;;;;;;5113073;28;20045;-74
2022/05/04 00:52:07;;;;;;;9.05;2.28;;;8.20;99.90;;;;;;5114194;28;20050;-75
2022/05/04 00:54:34;;;;;;;10.77;2.35;;;8.20;99.90;;;;;;5114116;28;20051;-74
2022/05/04 00:57:02;;;;;;;12.73;3.03;;;8.20;99.90;;;;;;5114159;28;20399;-75
2022/05/04 00:59:29;;;;;;;9.10;2.45;;;8.20;99.90;;;;;;5114027;28;20054;-75
2022/05/04 01:01:56;;;;;;;9.35;2.42;;;8.30;99.90;;;;;;5114107;28;20052;-75
2022/05/04 01:04:21;;;;;;;8.30;2.25;;;8.30;99.90;;;;;;5114045;28;20094;-74
2022/05/04 01:06:47;;;;;;;7.63;2.53;;;8.30;99.90;;;;;;5114081;28;20078;-75
2022/05/04 01:09:12;;;;;;;6.20;2.60;;;8.20;99.90;;;;;;5113823;28;20078;-75
2022/05/04 01:11:38;;;;;;;8.63;2.38;;;8.30;99.90;;;;;;5113927;28;20043;-75
2022/05/04 01:14:08;;;;;;;8.75;2.33;;;8.30;99.90;;;;;;5113582;28;20094;-75
2022/05/04 01:16:35;;;;;;;11.00;2.42;;;8.30;99.90;;;;;;5114172;28;20051;-75
2022/05/04 01:19:01;;;;;;;;;;;8.30;99.90;;;;;;5114430;28;20593;-74
2022/05/04 01:21:27;;;;;;;9.95;2.53;;;8.30;99.90;;;;;;5113879;28;19973;-74
2022/05/04 01:23:57;;;;;;;5.97;2.25;;;8.30;99.90;;;;;;5114097;28;20082;-74
2022/05/04 01:26:23;;;;;;;8.40;2.30;;;8.30;99.90;;;;;;5117712;28;20406;-76
2022/05/04 01:28:49;;;;;;;12.77;2.92;;;8.30;99.90;;;;;;5117920;28;20040;-75
2022/05/04 01:31:14;;;;;;;5.30;2.55;;;8.30;99.90;;;;;;5118196;28;20047;-75
2022/05/04 01:33:40;;;;;;;13.30;2.50;;;8.20;99.90;;;;;;5117739;28;20043;-75
2022/05/04 01:36:06;;;;;;;7.03;2.20;;;8.20;99.90;;;;;;5117823;28;20048;-75
2022/05/04 01:38:32;;;;;;;9.60;2.25;;;8.20;99.90;;;;;;5117900;28;20392;-74
2022/05/04 01:40:58;;;;;;;9.85;2.28;;;8.20;99.90;;;;;;5117678;28;20040;-75
2022/05/04 01:43:23;;;;;;;9.00;2.42;;;8.20;99.90;;;;;;5118172;28;20048;-75
2022/05/04 01:45:49;;;;;;;10.98;2.72;;;8.20;99.90;;;;;;5117624;28;20443;-76
2022/05/04 01:48:15;;;;;;;6.88;2.22;;;8.20;99.90;;;;;;5117844;28;20387;-76
2022/05/04 01:50:40;;;;;;;7.93;2.70;;;8.20;99.90;;;;;;5117360;28;20040;-74
2022/05/04 01:53:06;;;;;;;11.90;2.58;;;8.10;99.90;;;;;;5117546;28;20492;-76
2022/05/04 01:55:35;;;;;;;7.55;2.25;;;8.10;99.90;;;;;;5117470;27;20039;-75
2022/05/04 01:58:02;;;;;;;7.30;2.30;;;8.10;99.90;;;;;;5117414;28;20050;-76
2022/05/04 02:00:28;;;;;;;8.90;3.17;;;8.10;99.90;;;;;;5117308;28;20032;-75
2022/05/04 02:02:54;;;;;;;8.93;2.42;;;8.10;99.90;;;;;;5117287;27;20543;-75
2022/05/04 02:05:21;;;;;;;6.23;2.13;;;8.10;99.90;;;;;;5117281;28;20050;-75
2022/05/04 02:07:47;;;;;;;6.05;2.40;;;8.10;99.90;;;;;;5117334;28;20637;-75
2022/05/04 02:10:14;;;;;;;8.43;2.88;;;8.10;99.90;;;;;;5116921;28;20051;-74
2022/05/04 02:12:40;;;;;;;8.18;2.20;;;8.10;99.90;;;;;;5116810;27;20130;-75
2022/05/04 02:15:08;;;;;;;9.85;3.20;;;8.00;99.90;;;;;;5117073;28;20131;-74
2022/05/04 02:17:34;;;;;;;8.80;2.45;;;8.00;99.90;;;;;;5117042;28;20051;-74
2022/05/04 02:20:00;;;;;;;11.45;2.78;;;8.00;99.90;;;;;;5116996;28;20051;-74
2022/05/04 02:22:25;;;;;;;8.38;2.70;;;8.00;99.90;;;;;;5116937;28;20055;-75
2022/05/04 02:24:51;;;;;;;6.75;2.38;;;8.00;99.90;;;;;;5116748;28;20134;-74
2022/05/04 02:27:16;;;;;;;11.85;2.80;;;8.00;99.90;;;;;;5117221;28;20043;-75
2022/05/04 02:29:42;;;;;;;7.15;3.17;;;8.00;99.90;;;;;;5116677;28;20036;-74
2022/05/04 02:32:08;;;;;;;8.00;2.63;;;8.00;99.90;;;;;;5116646;28;20047;-74
2022/05/04 02:34:33;;;;;;;9.25;3.13;;;8.00;99.90;;;;;;5116840;28;20044;-75
2022/05/04 02:39:43;;;;;;;9.35;2.55;;;8.00;99.90;;;;;;5116990;28;20476;-74
2022/05/04 02:42:10;;;;;;;7.63;2.65;;;8.00;99.90;;;;;;5116881;28;20043;-74
2022/05/04 02:44:36;;;;;;;8.52;2.78;;;8.00;99.90;;;;;;5116335;28;20061;-75
2022/05/04 02:47:01;;;;;;;6.00;2.00;;;8.00;99.90;;;;;;5116306;28;20044;-74
2022/05/04 02:49:27;;;;;;;8.02;2.58;;;8.00;99.90;;;;;;5116314;28;20065;-76
2022/05/04 02:51:52;;;;;;;9.55;2.42;;;8.00;99.90;;;;;;5116287;28;20126;-75
2022/05/04 02:54:18;;;;;;;7.45;2.42;;;7.90;99.90;;;;;;5116334;28;20387;-75
2022/05/04 02:56:43;;;;;;;8.38;2.58;;;7.90;99.90;;;;;;5116190;28;20050;-76
2022/05/04 02:59:09;;;;;;;8.48;2.58;;;7.90;99.90;;;;;;5116190;28;20043;-74
2022/05/04 03:04:19;;;;;;;5.13;2.22;;;8.00;99.90;;;;;;5115106;28;20047;-73
2022/05/04 03:06:44;;;;;;;12.35;3.50;;;7.90;99.90;;;;;;5115998;28;20364;-73
2022/05/04 03:09:11;;;;;;;6.82;2.92;;;7.90;99.90;;;;;;5116392;28;20051;-74
2022/05/04 03:11:55;;;;;;;7.03;2.28;;;7.90;99.90;;;;;;5115946;28;20046;-74
2022/05/04 03:14:26;;;;;;;15.27;3.58;;;7.90;99.90;;;;;;5115516;28;20063;-75
2022/05/04 03:16:52;;;;;;;10.25;3.08;;;7.80;99.90;;;;;;5115788;28;20048;-74
2022/05/04 03:19:18;;;;;;;7.05;2.53;;;7.80;99.90;;;;;;5115680;28;20122;-74
2022/05/04 03:21:44;;;;;;;7.67;3.03;;;7.80;99.90;;;;;;5115701;28;20040;-74
2022/05/04 03:24:10;;;;;;;10.05;3.08;;;7.70;99.90;;;;;;5115606;28;20471;-74
2022/05/04 03:26:36;;;;;;;9.63;2.38;;;7.70;99.90;;;;;;5115932;28;20387;-74
2022/05/04 03:29:02;;;;;;;9.77;2.55;;;7.70;99.90;;;;;;5115568;28;20043;-74
2022/05/04 03:31:28;;;;;;;6.50;2.90;;;7.70;99.90;;;;;;5115539;28;20043;-75
2022/05/04 03:33:55;;;;;;;11.90;3.40;;;7.60;99.90;;;;;;5115380;27;20134;-74
2022/05/04 03:36:20;;;;;;;8.45;3.38;;;7.60;99.90;;;;;;5114261;28;20450;-75
2022/05/04 03:38:46;;;;;;;12.15;3.20;;;7.60;99.90;;;;;;5115463;28;20079;-74
2022/05/04 03:41:11;;;;;;;5.90;2.58;;;7.60;99.90;;;;;;5115342;28;20043;-75
2022/05/04 03:43:37;;;;;;;10.77;3.20;;;7.60;99.90;;;;;;5115635;28;20048;-74
2022/05/04 03:46:13;;;;;;;7.22;2.88;;;7.60;99.90;;;;;;5115244;28;20058;-73
2022/05/04 03:48:38;;;;;;;6.20;2.90;;;7.60;99.90;;;;;;5114231;28;20090;-75
2022/05/04 03:51:05;;;;;;;12.52;3.80;;;7.60;99.90;;;;;;5115073;27;20078;-74
2022/05/04 03:53:30;;;;;;;10.97;3.37;;;7.60;99.90;;;;;;5115165;28;20047;-74
2022/05/04 03:55:56;;;;;;;8.27;2.97;;;7.60;99.90;;;;;;5115120;28;20051;-74
2022/05/04 03:58:22;;;;;;;12.55;3.50;;;7.60;99.90;;;;;;5115073;28;20096;-75
2022/05/04 04:00:47;;;;;;;11.80;3.45;;;7.60;99.90;;;;;;5115106;28;20050;-75
2022/05/04 04:03:13;;;;;;;15.85;3.75;;;7.60;99.90;;;;;;5114823;28;20053;-75
2022/05/04 04:05:38;;;;;;;9.05;3.63;;;7.60;99.90;;;;;;5113962;28;20108;-74
2022/05/04 04:08:04;;;;;;;8.63;2.92;;;7.60;99.90;;;;;;5114806;28;20391;-75
2022/05/04 04:10:30;;;;;;;8.77;3.33;;;7.60;99.90;;;;;;5114750;28;20043;-76
2022/05/04 04:12:56;;;;;;;9.90;3.78;;;7.60;99.90;;;;;;5114510;28;20494;-75
2022/05/04 04:15:21;;;;;;;7.88;3.22;;;7.60;99.90;;;;;;5114718;28;20052;-75
2022/05/04 04:17:47;;;;;;;8.95;3.30;;;7.60;99.90;;;;;;5114715;28;20417;-76
2022/05/04 04:22:57;;;;;;;9.13;3.20;;;7.60;99.90;;;;;;5114951;28;20044;-75
2022/05/04 04:25:23;;;;;;;11.48;3.38;;;7.60;99.90;;;;;;5114532;28;20039;-74
2022/05/04 04:27:48;;;;;;;6.03;2.70;;;7.60;99.90;;;;;;5114574;28;20069;-75
2022/05/04 04:30:14;;;;;;;9.88;3.03;;;7.60;99.90;;;;;;5114369;28;20040;-75
2022/05/04 04:32:40;;;;;;;8.23;2.80;;;7.60;99.90;;;;;;5114434;28;20054;-76
2022/05/04 04:35:06;;;;;;;10.57;3.17;;;7.70;99.90;;;;;;5114386;28;20130;-76
2022/05/04 04:37:31;;;;;;;12.63;3.00;;;7.70;99.90;;;;;;5114467;28;20043;-76
2022/05/04 04:39:57;;;;;;;11.75;3.20;;;7.70;99.90;;;;;;5114324;28;20817;-75
2022/05/04 04:42:23;;;;;;;11.23;3.05;;;7.70;99.90;;;;;;5114521;28;20048;-76
2022/05/04 04:44:49;;;;;;;14.05;3.53;;;7.70;99.90;;;;;;5114308;28;20047;-75
2022/05/04 04:47:14;;;;;;;10.48;3.05;;;7.80;99.90;;;;;;5114179;28;20426;-74
2022/05/04 04:49:40;;;;;;;7.88;2.63;;;7.80;99.90;;;;;;5114263;28;20202;-75
2022/05/04 04:52:06;;;;;;;6.72;2.53;;;7.80;99.90;;;;;;5114398;28;20055;-75
2022/05/04 04:54:31;;;;;;;14.07;3.20;;;7.80;99.90;;;;;;5113366;28;20047;-75
2022/05/04 04:56:57;;;;;;;6.32;2.70;;;7.80;99.90;;;;;;5114274;28;20110;-75
2022/05/04 04:59:22;;;;;;;9.80;2.50;;;7.80;99.90;;;;;;5113157;28;20043;-76
2022/05/04 05:01:48;;;;;;;8.55;2.33;;;7.80;99.90;;;;;;5114050;28;20046;-76
2022/05/04 05:04:14;;;;;;;5.88;2.88;;;7.90;99.90;;;;;;5114078;28;20040;-75
2022/05/04 05:06:39;;;;;;;12.38;3.15;;;7.90;99.90;;;;;;5114415;28;20047;-79
2022/05/04 05:09:05;;;;;;;10.60;2.70;;;8.00;99.90;;;;;;5095881;28;20077;-75
2022/05/04 05:11:30;;;;;;;12.75;2.88;;;8.00;99.90;;;;;;5113898;28;20051;-76
2022/05/04 05:16:41;;;;;;;6.35;3.03;;;8.00;99.90;;;;;;5113921;28;20047;-75
2022/05/04 05:19:06;;;;;;;8.70;2.63;;;8.10;99.90;;;;;;5113889;28;20048;-75
2022/05/04 05:21:32;;;;;;;7.30;2.78;;;8.10;99.90;;;;;;5113871;28;20070;-74
2022/05/04 05:23:57;;;;;;;18.63;2.70;;;8.20;99.90;;;;;;5113850;28;20367;-74
2022/05/04 05:26:23;;;;;;;11.75;3.58;;;8.20;99.90;;;;;;5113884;28;20104;-74
2022/05/04 05:28:48;;;;;;;7.80;2.63;;;8.30;99.90;;;;;;5113811;28;20035;-75
2022/05/04 05:31:14;;;;;;;10.73;2.63;;;8.30;99.90;;;;;;5113736;28;20040;-74
2022/05/04 05:33:40;;;;;;;9.55;2.75;;;8.40;99.90;;;;;;5114218;28;20040;-75
2022/05/04 05:36:06;;;;;;;11.77;2.50;;;8.40;99.90;;;;;;5113834;28;20398;-79
2022/05/04 05:38:31;;;;;;;9.43;2.30;;;8.40;99.90;;;;;;5113857;28;20384;-75
2022/05/04 05:40:57;;;;;;;5.50;2.70;;;8.40;99.90;;;;;;5112935;28;20046;-75
2022/05/04 05:43:22;;;;;;;5.75;2.38;;;8.50;99.90;;;;;;5113425;28;20195;-74
2022/05/04 05:45:48;;;;;;;5.90;2.22;;;8.50;99.90;;;;;;5113731;28;20138;-78
2022/05/04 05:48:14;;;;;;;8.48;2.88;;;8.50;99.90;;;;;;5114006;28;20047;-76
2022/05/04 05:50:39;;;;;;;7.55;2.17;;;8.50;99.90;;;;;;5112182;28;20510;-77
2022/05/04 05:53:05;;;;;;;6.47;2.42;;;8.50;99.90;;;;;;5111015;28;20440;-77
2022/05/04 05:55:31;;;;;;;6.57;1.90;;;8.60;99.90;;;;;;5110566;28;20035;-76
2022/05/04 05:57:58;;;;;;;7.63;2.40;;;8.70;99.90;;;;;;5111536;28;20104;-76
2022/05/04 06:00:24;;;;;;;5.43;2.35;;;8.70;99.90;;;;;;5111485;28;20546;-75
2022/05/04 06:02:49;;;;;;;8.15;3.05;;;8.80;99.90;;;;;;5111436;28;20048;-77
2022/05/04 06:05:15;;;;;;;9.32;2.25;;;8.90;99.90;;;;;;5111500;28;20131;-75
2022/05/04 06:07:40;;;;;;;8.85;2.00;;;8.90;99.90;;;;;;5111803;28;20130;-76
2022/05/04 06:10:07;;;;;;;7.43;2.38;;;9.00;99.90;;;;;;5113430;28;20122;-75
2022/05/04 06:12:32;;;;;;;10.80;2.03;;;9.10;99.90;;;;;;5116906;28;20039;-76
2022/05/04 06:14:58;;;;;;;10.15;2.55;;;9.20;99.90;;;;;;5117034;28;20433;-76
2022/05/04 06:17:24;;;;;;;9.25;2.28;;;9.20;99.90;;;;;;5117080;28;20122;-77
2022/05/04 06:19:49;;;;;;;5.18;2.33;;;9.20;99.90;;;;;;5117332;28;20096;-76
2022/05/04 06:22:15;;;;;;;9.63;2.65;;;9.20;99.90;;;;;;5116935;28;20089;-75
2022/05/04 06:24:40;;;;;;;9.93;2.40;;;9.20;99.90;;;;;;5116859;28;20053;-76
2022/05/04 06:27:07;;;;;;;8.85;2.15;;;9.30;99.90;;;;;;5116793;28;20077;-75
2022/05/04 06:35:05;;;;;;;12.50;2.25;;;9.60;99.90;;;;;;5116932;28;20135;-77
2022/05/04 06:37:31;;;;;;;8.05;2.15;;;9.80;99.90;;;;;;5116873;28;20044;-75
2022/05/04 06:39:56;;;;;;;11.05;2.38;;;9.80;99.90;;;;;;5116528;28;20096;-78
2022/05/04 06:42:22;;;;;;;6.95;1.80;;;9.90;99.90;;;;;;5116663;28;20086;-77
2022/05/04 06:44:47;;;;;;;6.97;1.83;;;10.00;99.90;;;;;;5116483;28;20040;-77
2022/05/04 06:47:13;;;;;;;7.40;1.92;;;10.10;99.90;;;;;;5116460;28;20052;-77
2022/05/04 06:49:39;;;;;;;6.47;1.77;;;10.00;99.90;;;;;;5116406;28;20032;-77
2022/05/04 06:52:05;;;;;;;7.93;1.98;;;10.00;99.90;;;;;;5116387;28;20037;-76
2022/05/04 06:54:31;;;;;;;4.40;1.90;;;10.00;99.90;;;;;;5116251;28;20048;-75
2022/05/04 06:56:56;;;;;;;4.35;1.80;;;10.00;99.90;;;;;;5116330;28;20043;-76
2022/05/04 06:59:23;;;;;;;6.05;1.80;;;10.10;99.90;;;;;;5116238;28;20055;-77
2022/05/04 07:01:48;;;;;;;8.80;1.85;;;10.30;99.90;;;;;;5116234;27;20070;-76
2022/05/04 07:04:14;;;;;;;8.70;2.10;;;10.40;99.90;;;;;;5116359;28;20483;-77
2022/05/04 07:06:40;;;;;;;4.63;1.88;;;10.50;99.90;;;;;;5116129;28;20050;-77
2022/05/04 07:09:05;;;;;;;7.15;1.60;;;10.70;99.90;;;;;;5116021;28;20430;-77
2022/05/04 07:11:31;;;;;;;8.13;1.95;;;10.80;99.90;;;;;;5115456;28;20440;-76
2022/05/04 07:13:57;;;;;;;6.55;1.80;;;10.80;99.90;;;;;;5116020;28;20498;-77
2022/05/04 07:16:23;;;;;;;5.35;1.80;;;10.80;99.90;;;;;;5116001;28;20047;-76
2022/05/04 07:18:48;;;;;;;8.93;2.00;;;10.80;99.90;;;;;;5116064;28;20471;-76
2022/05/04 07:21:14;;;;;;;6.05;1.77;;;10.80;99.90;;;;;;5115767;28;20039;-76
2022/05/04 07:23:39;;;;;;;7.82;2.45;;;10.90;99.90;;;;;;5114789;28;20040;-77
2022/05/04 07:26:05;;;;;;;6.03;1.95;;;11.00;99.90;;;;;;5115465;28;20073;-76
2022/05/04 07:28:31;;;;;;;6.35;2.15;;;11.20;99.90;;;;;;5115564;28;20091;-76
2022/05/04 07:30:56;;;;;;;6.68;1.98;;;11.30;99.90;;;;;;5115490;28;20079;-76
2022/05/04 07:33:22;;;;;;;7.22;1.80;;;11.20;99.90;;;;;;5116001;28;20130;-77
2022/05/04 07:35:47;;;;;;;7.38;2.30;;;11.20;99.90;;;;;;5115555;28;20134;-77
2022/05/04 07:38:13;;;;;;;7.75;2.03;;;11.40;99.90;;;;;;5115332;28;20039;-77
2022/05/04 07:43:22;;;;;;;10.25;2.20;;;11.70;99.90;;;;;;5115344;28;20051;-77
2022/05/04 07:45:48;;;;;;;9.57;2.00;;;11.70;99.90;;;;;;5115317;28;20040;-75
2022/05/04 07:48:13;;;;;;;9.82;2.28;;;11.80;99.90;;;;;;5115212;28;20093;-76
2022/05/04 07:50:40;;;;;;;4.50;2.15;;;11.60;99.90;;;;;;5115159;28;20106;-76
2022/05/04 07:53:06;;;;;;;6.43;1.90;;;11.90;99.90;;;;;;5115129;28;20135;-76
2022/05/04 07:55:31;;;;;;;16.17;2.53;;;12.00;99.90;;;;;;5115581;28;20167;-77
2022/05/04 07:57:57;;;;;;;5.85;2.13;;;12.00;99.90;;;;;;5115101;28;20035;-77
2022/05/04 08:05:52;;;;;;;7.30;1.95;;;11.90;99.90;;;;;;5114930;28;20410;-77
2022/05/04 08:08:18;;;;;;;6.90;1.80;;;12.00;99.90;;;;;;5114725;28;20047;-77
2022/05/04 08:10:43;;;;;;;5.78;2.10;;;12.20;99.90;;;;;;5115099;28;20036;-76
2022/05/04 08:13:09;;;;;;;7.57;2.30;;;12.30;99.90;;;;;;5114761;28;20121;-77
2022/05/04 08:15:35;;;;;;;5.10;1.83;;;12.20;99.90;;;;;;5114961;28;20039;-76
2022/05/04 08:18:02;;;;;;;8.50;2.95;;;12.30;99.90;;;;;;5114804;28;20081;-76
2022/05/04 08:20:29;;;;;;;5.18;2.15;;;12.20;99.90;;;;;;5114134;28;20122;-76
2022/05/04 08:22:54;;;;;;;;;;;12.00;99.90;;;;;;5115058;28;20441;-76
2022/05/04 08:25:20;;;;;;;5.13;2.10;;;12.10;99.90;;;;;;5114625;28;19920;-78
2022/05/04 08:27:46;;;;;;;10.35;2.30;;;11.90;99.90;;;;;;5114562;28;20373;-75
2022/05/04 08:30:12;;;;;;;6.35;2.03;;;12.00;99.90;;;;;;5114761;28;20096;-75
2022/05/04 08:32:38;;;;;;;4.90;2.15;;;12.10;99.90;;;;;;5114401;28;20040;-77
2022/05/04 08:35:04;;;;;;;9.38;2.35;;;12.10;99.90;;;;;;5114121;28;20155;-76
2022/05/04 08:37:29;;;;;;;9.40;2.47;;;12.20;99.90;;;;;;5114405;28;20039;-77
2022/05/04 08:39:56;;;;;;;9.20;2.15;;;12.30;99.90;;;;;;5114686;28;20036;-77
2022/05/04 08:42:22;;;;;;;7.53;2.10;;;12.40;99.90;;;;;;5114378;28;20047;-77
2022/05/04 08:44:52;;;;;;;9.73;2.53;;;12.50;99.90;;;;;;5114508;28;20130;-76
2022/05/04 08:47:21;;;;;;;7.07;2.00;;;12.60;99.90;;;;;;5114294;28;20273;-77
2022/05/04 08:49:48;;;;;;;9.70;2.38;;;12.80;99.90;;;;;;5114185;28;20048;-77
2022/05/04 08:52:13;;;;;;;;;;;12.80;99.90;;;;;;5114667;28;20116;-77
2022/05/04 08:54:40;;;;;;;10.45;2.60;;;12.90;99.90;;;;;;5114494;28;20343;-77
2022/05/04 08:57:06;;;;;;;5.93;2.30;;;13.00;99.90;;;;;;5114413;28;20083;-77
2022/05/04 08:59:31;;;;;;;12.52;2.80;;;13.10;99.90;;;;;;5114014;28;20498;-76
2022/05/04 09:01:57;;;;;;;7.50;2.67;;;13.20;99.90;;;;;;5114164;28;20097;-77
2022/05/04 09:04:22;;;;;;;10.27;2.75;;;13.10;99.90;;;;;;5114099;28;21101;-76
2022/05/04 09:06:50;;;;;;;15.30;3.38;;;13.30;99.90;;;;;;5114042;28;20535;-78
2022/05/04 09:09:15;;;;;;;10.85;2.72;;;13.30;99.90;;;;;;5114030;28;20091;-76
2022/05/04 09:11:44;;;;;;;11.97;3.43;;;13.30;99.90;;;;;;5114088;28;20081;-77
2022/05/04 09:14:15;;;;;;;11.93;3.35;;;13.30;99.90;;;;;;5114214;28;20156;-76
2022/05/04 09:16:42;;;;;;;8.07;2.53;;;13.30;99.50;;;;;;5113977;28;20056;-76
2022/05/04 09:19:11;;;;;;;9.70;3.35;;;13.30;99.90;;;;;;5113961;28;20046;-76
2022/05/04 09:21:38;;;;;;;8.07;2.67;;;13.20;99.20;;;;;;5113975;28;20039;-77
2022/05/04 09:24:05;;;;;;;7.18;2.80;;;13.30;99.90;;;;;;5112979;28;20051;-76
2022/05/04 09:26:31;;;;;;;6.72;3.10;;;13.60;99.90;;;;;;5114147;28;20083;-75
2022/05/04 09:29:04;;;;;;;7.17;3.13;;;13.30;97.60;;;;;;5113964;28;20422;-75
2022/05/04 09:31:33;;;;;;;6.20;3.10;;;13.30;98.90;;;;;;5113731;28;20337;-77
2022/05/04 09:34:00;;;;;;;10.57;2.80;;;13.40;99.80;;;;;;5113868;28;20064;-78
2022/05/04 09:45:11;;;;;;;7.95;3.10;;;14.20;98.10;;;;;;5114053;28;20493;-77
2022/05/04 09:47:45;;;;;;;10.18;2.63;;;14.10;98.20;;;;;;5116741;28;20491;-77
2022/05/04 09:50:12;;;;;;;7.28;2.65;;;13.80;97.20;;;;;;5117543;28;20047;-77
2022/05/04 09:52:49;;;;;;;10.52;2.38;;;13.90;98.70;;;;;;5118507;28;20069;-77
2022/05/04 09:55:25;;;;;;;8.45;3.22;;;14.10;96.90;;;;;;5117965;27;20039;-77
2022/05/04 09:57:55;;;;;;;6.95;2.90;;;14.20;98.00;;;;;;5117542;28;20051;-76
2022/05/04 10:00:24;;;;;;;6.22;2.60;;;14.10;97.20;;;;;;5117227;27;20527;-77
2022/05/04 10:02:51;;;;;;;9.25;2.70;;;14.00;98.10;;;;;;5117164;28;20052;-76
2022/05/04 10:05:20;;;;;;;7.13;2.72;;;13.80;97.20;;;;;;5117805;28;20452;-77
2022/05/04 10:07:49;;;;;;;7.35;2.53;;;13.70;98.00;;;;;;5117241;28;20035;-77
2022/05/04 10:10:17;;;;;;;9.07;3.00;;;13.70;97.90;;;;;;5117108;28;20043;-78
2022/05/04 10:12:43;;;;;;;6.38;2.72;;;13.80;97.90;;;;;;5117106;28;20496;-76
2022/05/04 10:15:19;;;;;;;7.63;2.90;;;13.80;98.50;;;;;;5117227;28;20043;-77
2022/05/04 10:17:58;;;;;;;10.35;2.78;;;13.60;97.70;;;;;;5117631;27;20086;-76
2022/05/04 10:20:50;;;;;;;7.45;2.72;;;13.40;98.00;;;;;;5117142;28;20048;-76
2022/05/04 10:23:24;;;;;;;7.85;2.95;;;13.60;98.10;;;;;;5117039;28;20171;-76
2022/05/04 10:25:51;;;;;;;9.20;3.53;;;13.80;98.10;;;;;;5116941;28;20180;-77
2022/05/04 10:28:17;;;;;;;10.55;3.40;;;14.00;97.70;;;;;;5116863;28;20039;-77
2022/05/04 10:31:06;;;;;;;7.95;3.47;;;14.00;97.00;;;;;;5117323;28;20040;-77
2022/05/04 10:33:34;;;;;;;5.72;2.80;;;14.10;97.30;;;;;;5117032;28;20047;-77
2022/05/04 10:36:30;;;;;;;6.78;2.70;;;14.00;97.00;;;;;;5116902;28;20421;-78
2022/05/04 10:38:57;;;;;;;9.23;2.92;;;14.00;96.60;;;;;;5099542;28;20055;-77
2022/05/04 10:41:33;;;;;;;5.40;2.53;;;14.20;97.00;;;;;;5116556;28;20109;-77
2022/05/04 10:43:59;;;;;;;4.28;2.30;;;14.20;96.10;;;;;;5115668;28;20063;-76
2022/05/04 10:46:24;;;;;;;8.50;2.80;;;14.40;97.00;;;;;;5116571;28;20480;-77
2022/05/04 10:49:08;;;;;;;10.93;3.03;;;14.40;95.80;;;;;;5116430;28;20100;-77
2022/05/04 10:51:36;;;;;;;4.47;2.50;;;14.50;96.00;;;;;;5116389;28;20040;-77
2022/05/04 10:54:04;;;;;;;6.30;2.80;;;14.60;94.90;;;;;;5116412;28;20047;-77
2022/05/04 10:56:36;;;;;;;7.90;2.60;;;14.70;95.50;;;;;;5116199;28;20053;-77
2022/05/04 10:59:02;;;;;;;9.75;2.65;;;14.70;95.10;;;;;;5116379;28;20094;-76
2022/05/04 11:01:36;;;;;;;9.37;2.63;;;14.80;95.60;;;;;;5116218;28;20130;-76
2022/05/04 11:04:11;;;;;;;10.27;2.92;;;14.80;94.00;;;;;;5116251;28;20281;-77
2022/05/04 11:06:50;;;;;;;6.70;2.75;;;15.00;95.10;;;;;;5116081;28;20494;-78
2022/05/04 11:09:17;;;;;;;6.68;2.78;;;14.90;95.30;;;;;;5116284;28;20051;-77
2022/05/04 11:11:48;;;;;;;6.40;2.63;;;15.00;94.80;;;;;;5115858;28;20058;-75
2022/05/04 11:14:15;;;;;;;10.45;3.35;;;14.80;94.20;;;;;;5116066;28;20148;-77
2022/05/04 11:16:42;;;;;;;9.90;2.70;;;14.80;94.50;;;;;;5116130;28;20066;-76
2022/05/04 11:19:08;;;;;;;7.93;2.60;;;14.80;94.70;;;;;;5116101;28;20112;-75
2022/05/04 11:21:37;;;;;;;6.45;2.58;;;15.00;95.50;;;;;;5115892;28;20040;-77
2022/05/04 11:24:05;;;;;;;9.25;2.42;;;15.20;94.10;;;;;;5115751;28;20040;-77
2022/05/04 11:26:39;;;;;;;9.63;2.70;;;15.30;94.60;;;;;;5115314;28;20048;-78
2022/05/04 11:29:10;;;;;;;8.60;3.17;;;15.20;94.90;;;;;;5116289;28;20085;-76
2022/05/04 11:31:35;;;;;;;7.63;2.70;;;15.30;95.20;;;;;;5115511;28;20040;-77
2022/05/04 11:34:01;;;;;;;6.43;2.73;;;15.30;95.10;;;;;;5115573;28;20039;-77
2022/05/04 11:36:28;;;;;;;9.18;3.10;;;15.40;93.70;;;;;;5115533;28;20126;-77
2022/05/04 11:38:54;;;;;;;6.85;2.80;;;15.20;94.20;;;;;;5115434;28;20062;-78
2022/05/04 11:41:20;;;;;;;6.38;2.42;;;15.30;94.10;;;;;;5115634;28;20118;-77
2022/05/04 11:43:49;;;;;;;7.82;2.80;;;15.40;94.60;;;;;;5115045;28;20396;-77
2022/05/04 11:46:16;;;;;;;8.00;2.53;;;15.40;94.00;;;;;;5115377;28;20043;-77
2022/05/04 11:48:43;;;;;;;7.40;2.30;;;15.60;93.30;;;;;;5115224;28;20039;-77
2022/05/04 11:51:15;;;;;;;8.43;2.55;;;15.60;93.40;;;;;;5115206;28;20410;-77
2022/05/04 11:53:41;;;;;;;7.93;2.78;;;15.80;94.60;;;;;;5115129;28;20082;-76
2022/05/04 11:56:08;;;;;;;6.83;2.70;;;15.90;94.30;;;;;;5115138;28;20139;-77
2022/05/04 11:58:35;;;;;;;8.10;2.38;;;16.20;93.80;;;;;;5115074;28;20040;-77
2022/05/04 12:01:05;;;;;;;9.32;2.92;;;16.30;93.90;;;;;;5115188;28;20069;-77
2022/05/04 12:03:33;;;;;;;9.00;3.00;;;16.50;93.50;;;;;;5115169;28;20105;-77
2022/05/04 12:06:00;;;;;;;8.43;2.40;;;16.50;92.80;;;;;;5115036;28;20380;-76
2022/05/04 12:08:27;;;;;;;9.93;3.08;;;16.50;92.50;;;;;;5114394;28;20048;-78
2022/05/04 12:10:54;;;;;;;6.03;2.40;;;16.50;92.00;;;;;;5115282;28;20387;-77
2022/05/04 12:13:24;;;;;;;7.75;2.13;;;16.60;92.70;;;;;;5114859;28;20483;-78
2022/05/04 12:15:55;;;;;;;7.90;2.35;;;16.90;92.50;;;;;;5114850;28;20049;-78
2022/05/04 12:18:27;;;;;;;8.88;2.15;;;16.90;91.70;;;;;;5114812;28;20053;-77
2022/05/04 12:20:52;;;;;;;11.00;2.80;;;17.00;91.10;;;;;;5114763;28;20086;-77
2022/05/04 12:23:18;;;;;;;5.67;2.30;;;17.00;91.20;;;;;;5114636;28;20082;-77
2022/05/04 12:25:44;;;;;;;8.77;2.40;;;17.00;91.90;;;;;;5114654;28;20048;-77
2022/05/04 12:28:10;;;;;;;11.23;2.87;;;17.00;92.10;;;;;;5114657;28;20101;-78
2022/05/04 12:33:32;;;;;;;9.73;2.35;;;17.20;90.90;;;;;;5114914;28;20130;-77
2022/05/04 12:36:04;;;;;;;9.02;2.47;;;17.10;90.80;;;;;;5114465;28;20044;-77
2022/05/04 12:38:33;;;;;;;9.02;2.60;;;17.10;91.30;;;;;;5114445;28;20084;-78
2022/05/04 12:41:00;;;;;;;8.82;2.35;;;17.20;91.50;;;;;;5114365;28;20042;-78
2022/05/04 12:43:30;;;;;;;7.22;2.20;;;17.20;91.40;;;;;;5114784;28;20047;-77
2022/05/04 12:45:56;;;;;;;10.77;2.60;;;17.10;90.60;;;;;;5114245;28;20039;-77
2022/05/04 12:48:25;;;;;;;5.53;2.53;;;16.80;90.70;;;;;;5114494;28;20361;-77
2022/05/04 12:50:53;;;;;;;13.65;3.47;;;16.70;90.50;;;;;;5114265;28;20047;-77
2022/05/04 12:53:19;;;;;;;7.22;2.55;;;16.70;91.30;;;;;;5114249;28;20046;-77
2022/05/04 12:58:28;;;;;;;5.07;1.90;;;17.10;91.40;;;;;;5113882;28;20093;-77
2022/05/04 13:00:55;;;;;;;5.67;2.47;;;16.90;91.00;;;;;;5114185;28;20043;-77
2022/05/04 13:03:21;;;;;;;;;;;17.00;91.00;;;;;;5114670;28;20055;-77
2022/05/04 13:05:46;;;;;;;8.95;3.00;;;17.20;91.00;;;;;;5114062;28;19927;-76
2022/05/04 13:08:12;;;;;;;6.88;2.70;;;17.50;91.20;;;;;;5114129;28;20097;-77
2022/05/04 13:10:37;;;;;;;8.18;2.35;;;17.50;90.60;;;;;;5114074;28;20130;-77
2022/05/04 13:13:03;;;;;;;7.90;2.40;;;17.60;90.80;;;;;;5112775;28;20055;-77
2022/05/04 13:15:29;;;;;;;6.13;2.20;;;17.50;89.00;;;;;;5114514;28;20043;-77
2022/05/04 13:17:55;;;;;;;6.97;2.57;;;17.50;90.20;;;;;;5114029;28;20039;-77
2022/05/04 13:20:21;;;;;;;7.60;2.13;;;17.30;89.30;;;;;;5114496;28;20118;-77
2022/05/04 13:22:47;;;;;;;10.17;2.50;;;17.40;89.40;;;;;;5118434;28;20040;-77
2022/05/04 13:25:13;;;;;;;6.37;2.33;;;17.30;90.60;;;;;;5118322;28;20441;-77
2022/05/04 13:27:38;;;;;;;4.40;2.17;;;17.30;90.40;;;;;;5118087;28;20521;-77